createdAt,value
2023-03-06T00:01:01.564Z,84.51
2023-03-06T00:03:05.132Z,84.77
2023-03-06T00:05:08.898Z,85.94
2023-03-06T00:07:13.327Z,85.86
2023-03-06T00:09:16.444Z,85.48
2023-03-06T00:11:19.517Z,86.40
2023-03-06T00:13:22.894Z,86.02
2023-03-06T00:15:27.254Z,85.94
2023-03-06T00:17:30.448Z,85.41
2023-03-06T00:19:33.764Z,85.78
2023-03-06T00:21:36.941Z,84.91
2023-03-06T00:23:41.980Z,84.86
2023-03-06T00:25:45.882Z,84.85
2023-03-06T00:27:49.195Z,85.43
2023-03-06T00:29:56.146Z,85.67
2023-03-06T00:31:59.386Z,85.22
2023-03-06T00:34:03.013Z,84.52
2023-03-06T00:36:06.739Z,84.53
2023-03-06T00:38:12.733Z,84.97
2023-03-06T00:40:19.084Z,85.42
2023-03-06T00:42:22.167Z,85.43
2023-03-06T00:44:26.099Z,86.36
2023-03-06T00:46:29.170Z,85.67
2023-03-06T00:48:32.507Z,86.72
2023-03-06T00:50:36.276Z,86.69
2023-03-06T00:52:39.612Z,85.43
2023-03-06T00:54:44.084Z,85.62
2023-03-06T00:56:48.698Z,86.49
2023-03-06T00:58:52.010Z,85.55
2023-03-06T01:00:55.213Z,86.76
2023-03-06T01:02:59.094Z,86.68
2023-03-06T01:05:02.217Z,86.91
2023-03-06T01:07:05.381Z,86.51
2023-03-06T01:09:08.500Z,85.64
2023-03-06T01:11:11.539Z,86.67
2023-03-06T01:13:15.982Z,86.51
2023-03-06T01:15:19.101Z,86.46
2023-03-06T01:17:22.332Z,86.82
2023-03-06T01:19:25.380Z,86.78
2023-03-06T01:21:28.684Z,86.22
2023-03-06T01:23:32.047Z,87.15
2023-03-06T01:25:35.217Z,86.70
2023-03-06T01:27:38.415Z,87.38
2023-03-06T01:29:42.914Z,87.42
2023-03-06T01:31:46.876Z,86.89
2023-03-06T01:33:50.092Z,86.94
2023-03-06T01:35:53.207Z,85.95
2023-03-06T01:37:56.569Z,86.60
2023-03-06T01:39:59.713Z,86.88
2023-03-06T01:42:02.778Z,85.92
2023-03-06T01:44:06.049Z,85.71
2023-03-06T01:46:27.693Z,86.39
2023-03-06T01:48:30.946Z,86.69
2023-03-06T01:50:34.684Z,86.83
2023-03-06T01:52:40.873Z,87.43
2023-03-06T01:54:46.562Z,86.77
2023-03-06T01:56:54.086Z,86.63
2023-03-06T01:58:57.778Z,86.62
2023-03-06T02:01:00.968Z,86.61
2023-03-06T02:03:08.861Z,86.93
2023-03-06T02:05:14.320Z,86.41
2023-03-06T02:07:19.968Z,87.58
2023-03-06T02:09:23.071Z,86.94
2023-03-06T02:11:30.412Z,86.88
2023-03-06T02:13:33.748Z,86.73
2023-03-06T02:15:36.885Z,87.72
2023-03-06T02:17:40.137Z,86.59
2023-03-06T02:19:52.584Z,86.82
2023-03-06T02:21:56.338Z,87.30
2023-03-06T02:24:12.735Z,86.36
2023-03-06T02:26:17.832Z,87.54
2023-03-06T02:28:23.314Z,86.91
2023-03-06T02:30:28.176Z,87.28
2023-03-06T02:32:31.352Z,87.16
2023-03-06T02:34:54.143Z,86.49
2023-03-06T02:36:59.525Z,87.50
2023-03-06T02:39:03.068Z,87.47
2023-03-06T02:41:08.900Z,87.01
2023-03-06T02:43:13.964Z,87.08
2023-03-06T02:45:20.498Z,86.86
2023-03-06T02:47:23.575Z,87.49
2023-03-06T02:49:26.822Z,86.27
2023-03-06T02:51:29.938Z,87.04
2023-03-06T02:53:32.968Z,87.09
2023-03-06T02:55:36.768Z,86.35
2023-03-06T02:57:40.061Z,87.19
2023-03-06T02:59:44.724Z,86.62
2023-03-06T03:01:48.292Z,87.44
2023-03-06T03:03:51.389Z,87.71
2023-03-06T03:05:56.599Z,87.48
2023-03-06T03:08:04.210Z,87.23
2023-03-06T03:10:08.261Z,87.32
2023-03-06T03:12:11.852Z,88.16
2023-03-06T03:14:16.697Z,88.39
2023-03-06T03:16:23.716Z,87.17
2023-03-06T03:18:27.130Z,86.63
2023-03-06T03:20:30.217Z,87.15
2023-03-06T03:22:33.428Z,88.14
2023-03-06T03:24:36.640Z,87.45
2023-03-06T03:26:40.480Z,87.28
2023-03-06T03:28:48.449Z,87.21
2023-03-06T03:30:54.072Z,87.41
2023-03-06T03:32:58.493Z,87.31
2023-03-06T03:35:01.953Z,87.69
2023-03-06T03:37:06.366Z,88.19
2023-03-06T03:39:10.203Z,87.67
2023-03-06T03:41:13.913Z,87.50
2023-03-06T03:43:18.294Z,87.89
2023-03-06T03:45:22.206Z,87.66
2023-03-06T03:47:25.584Z,87.87
2023-03-06T03:49:30.154Z,87.36
2023-03-06T03:51:33.757Z,87.48
2023-03-06T03:53:37.428Z,86.31
2023-03-06T03:55:41.089Z,87.88
2023-03-06T03:57:44.405Z,87.08
2023-03-06T03:59:48.537Z,87.30
2023-03-06T04:02:25.455Z,87.51
2023-03-06T04:04:50.505Z,87.36
2023-03-06T04:06:53.814Z,87.67
2023-03-06T04:08:57.105Z,86.83
2023-03-06T04:11:00.874Z,87.68
2023-03-06T04:13:05.054Z,87.74
2023-03-06T04:15:09.866Z,87.44
2023-03-06T04:17:13.798Z,88.45
2023-03-06T04:19:16.930Z,88.21
2023-03-06T04:21:21.433Z,88.08
2023-03-06T04:23:25.294Z,88.54
2023-03-06T04:25:28.624Z,87.99
2023-03-06T04:27:32.077Z,87.35
2023-03-06T04:29:35.328Z,87.74
2023-03-06T04:31:38.742Z,88.20
2023-03-06T04:33:42.148Z,88.00
2023-03-06T04:35:45.833Z,87.69
2023-03-06T04:37:56.010Z,87.52
2023-03-06T04:40:00.768Z,87.69
2023-03-06T04:42:04.109Z,87.76
2023-03-06T04:44:07.187Z,87.64
2023-03-06T04:46:10.502Z,87.02
2023-03-06T04:48:15.109Z,86.72
2023-03-06T04:50:19.174Z,87.31
2023-03-06T04:52:22.315Z,87.52
2023-03-06T04:54:27.062Z,87.53
2023-03-06T04:56:30.594Z,88.25
2023-03-06T04:58:33.671Z,87.16
2023-03-06T05:00:36.802Z,87.95
2023-03-06T05:02:39.902Z,87.74
2023-03-06T05:04:43.018Z,87.31
2023-03-06T05:06:46.148Z,87.39
2023-03-06T05:08:49.395Z,87.34
2023-03-06T05:10:57.937Z,87.17
2023-03-06T05:13:01.046Z,87.72
2023-03-06T05:15:04.808Z,87.79
2023-03-06T05:17:08.065Z,88.31
2023-03-06T05:19:11.152Z,88.06
2023-03-06T05:21:14.349Z,86.91
2023-03-06T05:23:17.499Z,87.81
2023-03-06T05:25:20.749Z,87.36
2023-03-06T05:27:25.252Z,87.28
2023-03-06T05:29:28.495Z,88.00
2023-03-06T05:31:31.803Z,87.39
2023-03-06T05:33:35.568Z,87.40
2023-03-06T05:35:38.988Z,88.38
2023-03-06T05:37:42.246Z,87.36
2023-03-06T05:39:45.659Z,88.33
2023-03-06T05:41:49.026Z,87.73
2023-03-06T05:43:55.180Z,87.42
2023-03-06T05:46:05.799Z,86.40
2023-03-06T05:48:09.370Z,86.98
2023-03-06T05:50:13.987Z,86.83
2023-03-06T05:52:17.567Z,86.13
2023-03-06T05:54:21.344Z,86.74
2023-03-06T05:56:24.658Z,86.70
2023-03-06T05:58:27.961Z,86.97
2023-03-06T06:00:32.577Z,87.08
2023-03-06T06:02:35.787Z,86.97
2023-03-06T06:04:39.165Z,86.55
2023-03-06T06:06:42.341Z,86.49
2023-03-06T06:08:45.810Z,85.83
2023-03-06T06:10:53.232Z,86.21
2023-03-06T06:12:56.463Z,87.58
2023-03-06T06:14:59.676Z,86.86
2023-03-06T06:17:07.994Z,87.04
2023-03-06T06:19:15.507Z,86.51
2023-03-06T06:21:18.833Z,87.87
2023-03-06T06:23:21.893Z,87.63
2023-03-06T06:25:24.999Z,86.68
2023-03-06T06:27:28.170Z,87.02
2023-03-06T06:29:31.735Z,88.34
2023-03-06T06:31:36.715Z,87.32
2023-03-06T06:33:41.906Z,87.59
2023-03-06T06:35:45.132Z,87.37
2023-03-06T06:37:48.409Z,87.26
2023-03-06T06:39:51.571Z,87.03
2023-03-06T06:42:15.240Z,87.63
2023-03-06T06:44:17.883Z,87.16
2023-03-06T06:47:02.652Z,87.01
2023-03-06T06:48:46.154Z,86.30
2023-03-06T06:50:56.683Z,86.03
2023-03-06T06:52:59.722Z,85.46
2023-03-06T06:55:03.093Z,86.41
2023-03-06T06:57:06.432Z,86.82
2023-03-06T06:59:16.451Z,86.55
2023-03-06T07:01:22.724Z,86.57
2023-03-06T07:03:26.356Z,86.40
2023-03-06T07:05:30.850Z,86.66
2023-03-06T07:07:36.120Z,86.81
2023-03-06T07:09:40.243Z,86.93
2023-03-06T07:11:43.506Z,86.98
2023-03-06T07:13:46.933Z,87.00
2023-03-06T07:15:50.085Z,86.79
2023-03-06T07:17:53.429Z,86.47
2023-03-06T07:19:56.719Z,86.43
2023-03-06T07:22:01.552Z,85.21
2023-03-06T07:24:05.056Z,84.05
2023-03-06T07:26:08.735Z,84.70
2023-03-06T07:28:11.865Z,84.77
2023-03-06T07:30:15.616Z,84.04
2023-03-06T07:32:19.234Z,84.41
2023-03-06T07:34:22.503Z,85.17
2023-03-06T07:36:28.014Z,85.16
2023-03-06T07:38:32.504Z,85.07
2023-03-06T07:40:38.900Z,84.59
2023-03-06T07:42:42.038Z,84.86
2023-03-06T07:44:48.653Z,86.75
2023-03-06T07:46:52.357Z,85.37
2023-03-06T07:48:55.524Z,86.41
2023-03-06T07:50:59.865Z,86.84
2023-03-06T07:53:03.113Z,86.11
2023-03-06T07:55:09.666Z,86.82
2023-03-06T07:57:14.142Z,86.04
2023-03-06T07:59:17.466Z,85.66
2023-03-06T08:01:23.555Z,84.32
2023-03-06T08:03:26.861Z,84.67
2023-03-06T08:05:30.288Z,84.73
2023-03-06T08:07:35.629Z,84.45
2023-03-06T08:09:38.735Z,84.68
2023-03-06T08:11:45.332Z,84.20
2023-03-06T08:13:49.356Z,83.36
2023-03-06T08:15:52.556Z,82.84
2023-03-06T08:17:55.871Z,82.19
2023-03-06T08:19:59.112Z,82.12
2023-03-06T08:22:02.254Z,81.75
2023-03-06T08:24:06.773Z,81.48
2023-03-06T08:26:18.052Z,81.24
2023-03-06T08:28:22.561Z,80.63
2023-03-06T08:30:25.901Z,80.96
2023-03-06T08:32:29.312Z,81.79
2023-03-06T08:34:32.685Z,81.41
2023-03-06T08:36:36.047Z,81.13
2023-03-06T08:38:39.392Z,80.38
2023-03-06T08:40:42.539Z,80.36
2023-03-06T08:42:45.630Z,79.26
2023-03-06T08:44:50.597Z,78.13
2023-03-06T08:46:53.706Z,78.68
2023-03-06T08:48:56.990Z,78.26
2023-03-06T08:51:00.341Z,78.42
2023-03-06T08:53:03.578Z,77.99
2023-03-06T08:55:07.844Z,77.63
2023-03-06T08:57:11.070Z,77.54
2023-03-06T08:59:14.690Z,78.72
2023-03-06T09:01:20.777Z,77.85
2023-03-06T09:03:23.926Z,77.71
2023-03-06T09:05:27.232Z,77.52
2023-03-06T09:07:30.716Z,77.69
2023-03-06T09:09:34.278Z,78.03
2023-03-06T09:11:38.249Z,79.31
2023-03-06T09:13:41.431Z,79.16
2023-03-06T09:15:44.568Z,79.63
2023-03-06T09:17:50.875Z,79.40
2023-03-06T09:19:56.846Z,80.13
2023-03-06T09:22:01.112Z,80.19
2023-03-06T09:24:04.568Z,80.93
2023-03-06T09:26:08.343Z,80.82
2023-03-06T09:28:12.310Z,81.89
2023-03-06T09:30:16.076Z,81.54
2023-03-06T09:32:19.387Z,81.58
2023-03-06T09:34:24.195Z,81.75
2023-03-06T09:36:27.468Z,81.07
2023-03-06T09:38:30.599Z,80.96
2023-03-06T09:40:42.887Z,81.27
2023-03-06T09:42:46.033Z,81.83
2023-03-06T09:44:52.985Z,82.77
2023-03-06T09:47:08.368Z,82.42
2023-03-06T09:49:31.406Z,82.97
2023-03-06T09:51:41.827Z,81.45
2023-03-06T09:54:00.317Z,82.13
2023-03-06T09:56:06.440Z,81.37
2023-03-06T09:58:15.480Z,81.06
2023-03-06T10:00:21.561Z,80.17
2023-03-06T10:02:29.816Z,80.56
2023-03-06T10:04:37.702Z,80.83
2023-03-06T10:06:48.602Z,80.76
2023-03-06T10:08:54.560Z,79.94
2023-03-06T10:11:02.353Z,80.03
2023-03-06T10:13:13.661Z,81.48
2023-03-06T10:15:19.596Z,81.74
2023-03-06T10:17:23.995Z,80.36
2023-03-06T10:19:32.765Z,79.64
2023-03-06T10:21:46.756Z,79.74
2023-03-06T10:23:54.483Z,80.69
2023-03-06T10:26:01.705Z,80.54
2023-03-06T10:28:12.310Z,79.10
2023-03-06T10:30:28.441Z,79.18
2023-03-06T10:32:46.239Z,79.90
2023-03-06T10:34:51.397Z,79.37
2023-03-06T10:36:56.033Z,79.38
2023-03-06T10:38:59.855Z,78.85
2023-03-06T10:41:08.523Z,78.72
2023-03-06T10:43:12.551Z,78.75
2023-03-06T10:45:17.021Z,78.72
2023-03-06T10:47:30.481Z,78.32
2023-03-06T10:49:35.701Z,78.06
2023-03-06T10:51:38.959Z,79.52
2023-03-06T10:53:52.348Z,78.87
2023-03-06T10:55:58.297Z,77.48
2023-03-06T10:58:20.456Z,78.09
2023-03-06T11:00:30.031Z,77.81
2023-03-06T11:02:40.816Z,77.55
2023-03-06T11:04:48.141Z,77.57
2023-03-06T11:07:06.404Z,77.76
2023-03-06T11:09:22.885Z,77.71
2023-03-06T11:11:37.190Z,78.03
2023-03-06T11:13:42.760Z,77.07
2023-03-06T11:15:57.006Z,76.84
2023-03-06T11:18:03.685Z,76.64
2023-03-06T11:20:20.165Z,77.91
2023-03-06T11:22:23.201Z,77.76
2023-03-06T11:24:28.532Z,76.47
2023-03-06T11:26:39.319Z,75.99
2023-03-06T11:28:46.011Z,77.22
2023-03-06T11:30:51.285Z,75.28
2023-03-06T11:32:57.812Z,76.38
2023-03-06T11:35:03.624Z,75.99
2023-03-06T11:37:11.490Z,74.45
2023-03-06T11:39:20.770Z,75.38
2023-03-06T11:41:33.268Z,73.59
2023-03-06T11:43:40.802Z,72.78
2023-03-06T11:45:46.251Z,75.06
2023-03-06T11:47:51.787Z,74.20
2023-03-06T11:50:05.585Z,73.73
2023-03-06T11:52:16.244Z,74.29
2023-03-06T11:54:19.658Z,73.32
2023-03-06T11:56:34.238Z,73.11
2023-03-06T11:58:44.236Z,73.31
2023-03-06T12:00:51.538Z,72.62
2023-03-06T12:03:14.077Z,72.19
2023-03-06T12:05:31.837Z,71.36
2023-03-06T12:07:37.359Z,70.75
2023-03-06T12:09:47.409Z,72.45
2023-03-06T12:12:02.827Z,74.15
2023-03-06T12:14:21.738Z,73.34
2023-03-06T12:16:39.222Z,73.13
2023-03-06T12:18:50.245Z,71.56
2023-03-06T12:21:01.334Z,71.26
2023-03-06T12:23:15.508Z,71.13
2023-03-06T12:25:34.392Z,69.32
2023-03-06T12:27:43.920Z,67.75
2023-03-06T12:29:58.468Z,68.64
2023-03-06T12:32:09.449Z,68.92
2023-03-06T12:34:23.839Z,68.22
2023-03-06T12:36:34.488Z,67.87
2023-03-06T12:38:54.578Z,67.13
2023-03-06T12:41:08.442Z,67.22
2023-03-06T12:43:32.305Z,67.02
2023-03-06T12:45:37.028Z,67.58
2023-03-06T12:47:43.833Z,66.89
2023-03-06T12:49:52.893Z,67.32
2023-03-06T12:51:57.496Z,68.34
2023-03-06T12:54:01.819Z,67.22
2023-03-06T12:56:05.461Z,67.95
2023-03-06T12:58:42.622Z,67.69
2023-03-06T13:01:04.745Z,66.33
2023-03-06T13:03:17.454Z,67.74
2023-03-06T13:05:43.367Z,66.48
2023-03-06T13:07:55.591Z,67.12
2023-03-06T13:10:17.153Z,66.85
2023-03-06T13:12:29.410Z,68.26
2023-03-06T13:14:54.816Z,68.08
2023-03-06T13:17:27.779Z,66.99
2023-03-06T13:19:31.052Z,67.37
2023-03-06T13:22:03.092Z,67.61
2023-03-06T13:24:07.316Z,67.58
2023-03-06T13:26:11.999Z,69.42
2023-03-06T13:28:26.874Z,68.29
2023-03-06T13:30:46.040Z,68.11
2023-03-06T13:32:51.549Z,69.51
2023-03-06T13:34:54.663Z,68.64
2023-03-06T13:37:53.429Z,68.08
2023-03-06T13:40:14.800Z,68.37
2023-03-06T13:42:27.117Z,68.69
2023-03-06T13:44:50.846Z,67.30
2023-03-06T13:47:00.373Z,66.77
2023-03-06T13:49:12.877Z,67.23
2023-03-06T13:51:23.164Z,67.95
2023-03-06T13:54:04.416Z,68.29
2023-03-06T13:56:25.582Z,67.74
2023-03-06T13:58:40.065Z,66.79
2023-03-06T14:01:03.352Z,66.88
2023-03-06T14:03:53.976Z,67.95
2023-03-06T14:05:58.984Z,66.79
2023-03-06T14:08:07.756Z,66.95
2023-03-06T14:10:20.258Z,66.69
2023-03-06T14:12:25.150Z,65.64
2023-03-06T14:14:34.910Z,67.58
2023-03-06T14:16:49.794Z,66.52
2023-03-06T14:18:54.927Z,66.71
2023-03-06T14:21:01.775Z,67.47
2023-03-06T14:23:23.463Z,66.47
2023-03-06T14:25:29.694Z,67.22
2023-03-06T14:27:43.834Z,66.76
2023-03-06T14:29:48.726Z,67.70
2023-03-06T14:31:53.068Z,67.11
2023-03-06T14:33:57.464Z,66.93
2023-03-06T14:36:04.371Z,66.28
2023-03-06T14:38:08.136Z,66.19
2023-03-06T14:40:13.879Z,68.05
2023-03-06T14:42:18.744Z,67.75
2023-03-06T14:44:23.110Z,67.49
2023-03-06T14:46:26.271Z,68.05
2023-03-06T14:48:40.149Z,68.34
2023-03-06T14:50:48.607Z,67.47
2023-03-06T14:52:55.669Z,67.85
2023-03-06T14:54:58.887Z,66.32
2023-03-06T14:57:05.930Z,66.86
2023-03-06T14:59:12.441Z,66.68
2023-03-06T15:01:16.260Z,66.33
2023-03-06T15:03:23.952Z,66.62
2023-03-06T15:05:28.486Z,66.29
2023-03-06T15:07:32.453Z,66.68
2023-03-06T15:09:38.619Z,66.67
2023-03-06T15:11:59.915Z,66.59
2023-03-06T15:14:04.039Z,65.86
2023-03-06T15:16:09.175Z,67.02
2023-03-06T15:18:29.897Z,67.49
2023-03-06T15:20:54.216Z,67.14
2023-03-06T15:22:57.502Z,67.17
2023-03-06T15:25:27.568Z,65.82
2023-03-06T15:27:31.905Z,66.69
2023-03-06T15:29:35.901Z,65.06
2023-03-06T15:31:39.734Z,66.12
2023-03-06T15:33:42.933Z,66.50
2023-03-06T15:35:55.051Z,65.45
2023-03-06T15:37:58.888Z,65.34
2023-03-06T15:40:09.334Z,65.64
2023-03-06T15:42:20.291Z,66.03
2023-03-06T15:44:23.422Z,66.84
2023-03-06T15:46:26.846Z,66.38
2023-03-06T15:48:30.113Z,67.42
2023-03-06T15:50:33.265Z,67.78
2023-03-06T15:52:36.470Z,66.44
2023-03-06T15:54:39.611Z,66.49
2023-03-06T15:56:44.680Z,67.24
2023-03-06T15:58:49.373Z,67.45
2023-03-06T16:00:52.729Z,66.83
2023-03-06T16:02:56.348Z,67.08
2023-03-06T16:05:02.453Z,66.96
2023-03-06T16:07:05.874Z,67.31
2023-03-06T16:09:09.016Z,68.02
2023-03-06T16:11:20.314Z,68.22
2023-03-06T16:13:27.111Z,68.37
2023-03-06T16:15:33.409Z,69.15
2023-03-06T16:17:36.453Z,68.99
2023-03-06T16:19:39.757Z,69.00
2023-03-06T16:21:44.142Z,71.49
2023-03-06T16:23:47.248Z,71.56
2023-03-06T16:25:51.049Z,73.01
2023-03-06T16:27:59.114Z,73.93
2023-03-06T16:30:02.205Z,73.22
2023-03-06T16:32:07.868Z,74.08
2023-03-06T16:34:11.031Z,74.09
2023-03-06T16:36:15.886Z,74.47
2023-03-06T16:38:19.263Z,75.00
2023-03-06T16:40:24.456Z,75.01
2023-03-06T16:42:27.649Z,75.18
2023-03-06T16:44:30.812Z,75.87
2023-03-06T16:46:42.825Z,75.28
2023-03-06T16:48:47.435Z,76.14
2023-03-06T16:50:50.527Z,75.74
2023-03-06T16:52:55.511Z,76.30
2023-03-06T16:54:58.836Z,75.73
2023-03-06T16:57:02.371Z,75.80
2023-03-06T16:59:05.437Z,75.86
2023-03-06T17:01:09.922Z,76.39
2023-03-06T17:03:13.102Z,76.64
2023-03-06T17:05:17.887Z,76.20
2023-03-06T17:07:21.135Z,76.02
2023-03-06T17:09:24.265Z,76.56
2023-03-06T17:11:27.395Z,76.12
2023-03-06T17:13:30.644Z,76.57
2023-03-06T17:15:33.895Z,75.90
2023-03-06T17:17:37.307Z,75.45
2023-03-06T17:19:40.683Z,76.04
2023-03-06T17:21:45.294Z,75.92
2023-03-06T17:23:48.440Z,76.22
2023-03-06T17:25:51.564Z,75.58
2023-03-06T17:27:55.228Z,75.43
2023-03-06T17:29:58.726Z,75.86
2023-03-06T17:32:02.153Z,75.70
2023-03-06T17:34:05.314Z,75.32
2023-03-06T17:36:09.506Z,75.38
2023-03-06T17:38:14.162Z,75.10
2023-03-06T17:40:17.416Z,74.89
2023-03-06T17:42:20.508Z,75.01
2023-03-06T17:44:23.664Z,74.76
2023-03-06T17:46:27.198Z,75.06
2023-03-06T17:48:30.723Z,74.53
2023-03-06T17:50:34.295Z,74.60
2023-03-06T17:52:39.018Z,74.72
2023-03-06T17:54:43.977Z,74.87
2023-03-06T17:56:47.160Z,74.44
2023-03-06T17:58:50.351Z,74.23
2023-03-06T18:00:53.610Z,73.83
2023-03-06T18:02:56.622Z,74.21
2023-03-06T18:04:59.793Z,73.75
2023-03-06T18:07:02.919Z,73.31
2023-03-06T18:09:06.724Z,73.32
2023-03-06T18:11:12.121Z,73.94
2023-03-06T18:13:15.290Z,74.03
2023-03-06T18:15:18.689Z,74.26
2023-03-06T18:17:21.931Z,74.26
2023-03-06T18:19:25.529Z,74.51
2023-03-06T18:21:30.331Z,74.97
2023-03-06T18:23:33.701Z,75.99
2023-03-06T18:25:36.922Z,75.96
2023-03-06T18:27:41.633Z,76.55
2023-03-06T18:29:44.801Z,76.36
2023-03-06T18:31:50.047Z,77.17
2023-03-06T18:33:55.065Z,76.97
2023-03-06T18:35:58.257Z,76.90
2023-03-06T18:38:01.808Z,76.66
2023-03-06T18:40:05.449Z,76.60
2023-03-06T18:42:09.157Z,76.82
2023-03-06T18:44:15.126Z,76.47
2023-03-06T18:46:18.313Z,76.83
2023-03-06T18:48:21.637Z,76.80
2023-03-06T18:50:24.811Z,76.96
2023-03-06T18:52:31.088Z,77.17
2023-03-06T18:54:34.270Z,77.09
2023-03-06T18:56:39.396Z,77.19
2023-03-06T18:58:42.677Z,76.86
2023-03-06T19:00:47.580Z,76.90
2023-03-06T19:02:50.816Z,77.00
2023-03-06T19:04:54.598Z,76.66
2023-03-06T19:06:57.822Z,76.89
2023-03-06T19:09:02.201Z,76.31
2023-03-06T19:11:07.169Z,76.48
2023-03-06T19:13:11.577Z,76.99
2023-03-06T19:15:14.866Z,76.61
2023-03-06T19:17:19.360Z,76.75
2023-03-06T19:19:26.172Z,76.94
2023-03-06T19:21:29.607Z,76.38
2023-03-06T19:23:32.899Z,76.46
2023-03-06T19:25:36.346Z,76.20
2023-03-06T19:27:39.436Z,76.50
2023-03-06T19:29:43.078Z,76.36
2023-03-06T19:31:46.411Z,76.36
2023-03-06T19:33:52.976Z,76.59
2023-03-06T19:35:56.205Z,76.50
2023-03-06T19:37:59.424Z,76.86
2023-03-06T19:40:03.775Z,76.13
2023-03-06T19:42:07.388Z,76.43
2023-03-06T19:44:12.247Z,76.52
2023-03-06T19:46:16.097Z,76.07
2023-03-06T19:48:21.176Z,76.10
2023-03-06T19:50:29.587Z,76.22
2023-03-06T19:52:33.110Z,76.73
2023-03-06T19:54:37.368Z,76.71
2023-03-06T19:56:41.049Z,76.65
2023-03-06T19:58:44.680Z,76.62
2023-03-06T20:00:48.003Z,76.79
2023-03-06T20:02:51.456Z,76.58
2023-03-06T20:04:56.536Z,76.53
2023-03-06T20:07:01.165Z,76.67
2023-03-06T20:09:06.785Z,76.30
2023-03-06T20:11:16.947Z,76.53
2023-03-06T20:13:20.198Z,76.47
2023-03-06T20:15:23.460Z,76.13
2023-03-06T20:17:26.768Z,76.74
2023-03-06T20:19:30.119Z,76.57
2023-03-06T20:21:35.485Z,75.77
2023-03-06T20:23:39.969Z,76.50
2023-03-06T20:25:43.401Z,76.15
2023-03-06T20:27:46.622Z,76.79
2023-03-06T20:29:49.709Z,76.14
2023-03-06T20:31:54.561Z,76.79
2023-03-06T20:33:59.226Z,76.94
2023-03-06T20:36:02.722Z,76.74
2023-03-06T20:38:08.046Z,76.51
2023-03-06T20:40:13.892Z,76.73
2023-03-06T20:42:17.734Z,76.29
2023-03-06T20:44:23.135Z,76.23
2023-03-06T20:46:26.522Z,77.37
2023-03-06T20:48:30.002Z,76.76
2023-03-06T20:50:33.094Z,77.42
2023-03-06T20:52:36.342Z,76.67
2023-03-06T20:54:42.480Z,76.38
2023-03-06T20:56:49.008Z,77.11
2023-03-06T20:58:52.327Z,77.50
2023-03-06T21:00:55.453Z,77.21
2023-03-06T21:02:58.774Z,77.49
2023-03-06T21:05:02.769Z,78.12
2023-03-06T21:07:06.051Z,77.97
2023-03-06T21:09:09.253Z,77.81
2023-03-06T21:11:12.557Z,76.51
2023-03-06T21:13:17.576Z,77.05
2023-03-06T21:15:21.119Z,76.50
2023-03-06T21:17:25.453Z,77.39
2023-03-06T21:19:28.590Z,76.24
2023-03-06T21:21:33.510Z,76.43
2023-03-06T21:23:36.743Z,76.84
2023-03-06T21:25:48.680Z,77.11
2023-03-06T21:27:51.976Z,77.42
2023-03-06T21:29:56.464Z,77.39
2023-03-06T21:31:59.876Z,76.93
2023-03-06T21:34:05.031Z,77.72
2023-03-06T21:36:09.307Z,77.27
2023-03-06T21:38:12.445Z,77.33
2023-03-06T21:40:15.782Z,77.15
2023-03-06T21:42:18.811Z,77.66
2023-03-06T21:44:22.129Z,76.50
2023-03-06T21:46:27.078Z,77.30
2023-03-06T21:48:30.309Z,76.49
2023-03-06T21:50:33.391Z,77.56
2023-03-06T21:52:36.719Z,77.31
2023-03-06T21:54:39.992Z,78.00
2023-03-06T21:56:43.122Z,77.02
2023-03-06T21:58:46.563Z,77.40
2023-03-06T22:00:49.688Z,76.66
2023-03-06T22:02:54.281Z,77.40
2023-03-06T22:04:57.472Z,77.98
2023-03-06T22:07:00.574Z,77.91
2023-03-06T22:09:04.369Z,78.40
2023-03-06T22:11:09.799Z,77.67
2023-03-06T22:13:13.179Z,78.51
2023-03-06T22:15:16.459Z,78.58
2023-03-06T22:17:19.534Z,78.62
2023-03-06T22:19:24.285Z,78.67
2023-03-06T22:21:27.507Z,79.40
2023-03-06T22:23:30.642Z,78.53
2023-03-06T22:25:35.394Z,78.49
2023-03-06T22:27:38.549Z,79.48
2023-03-06T22:29:41.626Z,78.34
2023-03-06T22:31:44.860Z,78.06
2023-03-06T22:33:48.273Z,78.62
2023-03-06T22:35:55.296Z,78.90
2023-03-06T22:37:58.663Z,79.14
2023-03-06T22:40:01.930Z,79.60
2023-03-06T22:42:07.049Z,78.67
2023-03-06T22:44:16.527Z,78.95
2023-03-06T22:46:19.762Z,78.38
2023-03-06T22:48:23.178Z,79.95
2023-03-06T22:50:26.210Z,78.47
2023-03-06T22:52:31.074Z,79.78
2023-03-06T22:54:34.154Z,79.21
2023-03-06T22:56:37.566Z,79.79
2023-03-06T22:58:40.857Z,80.30
2023-03-06T23:00:43.984Z,79.88
2023-03-06T23:02:47.108Z,79.93
2023-03-06T23:04:52.347Z,79.94
2023-03-06T23:06:55.476Z,80.29
2023-03-06T23:09:01.432Z,81.06
2023-03-06T23:11:09.087Z,80.84
2023-03-06T23:13:31.007Z,80.23
2023-03-06T23:15:53.183Z,80.34
2023-03-06T23:18:18.034Z,80.82
2023-03-06T23:20:42.914Z,80.96
2023-03-06T23:23:04.974Z,81.05
2023-03-06T23:25:18.918Z,81.22
2023-03-06T23:27:21.979Z,80.19
2023-03-06T23:29:25.353Z,81.23
2023-03-06T23:31:30.514Z,81.80
2023-03-06T23:33:33.648Z,81.29
2023-03-06T23:35:37.761Z,80.89
2023-03-06T23:37:40.846Z,81.45
2023-03-06T23:39:43.926Z,80.92
2023-03-06T23:41:48.697Z,80.95
2023-03-06T23:43:54.653Z,80.93
2023-03-06T23:45:58.629Z,81.40
2023-03-06T23:48:01.794Z,81.44
2023-03-06T23:50:05.181Z,81.15
2023-03-06T23:52:08.386Z,81.00
2023-03-06T23:54:11.617Z,80.14
2023-03-06T23:56:14.726Z,81.79
2023-03-06T23:58:19.891Z,81.15
